Jacqueline A — WBL2486 — position and weather

sailwx.info

Track history (hours):
 
Tides and Currents Weather Stations Pressure Air Temp Water Temp Dewpoint Dewpoint Depression Visibility Wind Speed Wind Dir Waves Ship Positions

Jacqueline A

Owner: SEALAND TRANSPORT CO, URBANNA, VA. More information available from US FCC via Universal Licensing System and Coast Guard Vessel Documentation Center.

Last reported at 2018-Apr-18 01:22 UTC. Time now 2018-Apr-20 22:04 UTC.
Position N 38°03' W 076°26'.

; draft 3 m.

Type: Towing. MMSI: 367299940.

Date/timePositionNaut miles runAvg speedWind from/ knotsBaromVisibWave heightAir tempDewpointWater temp
2018-Apr-18 01:22N 38°03' W 076°26'51 5.9
2018-Apr-17 16:36N 38°46' W 077°02'1 9.8
2018-Apr-17 16:30N 38°47' W 077°02'4 8.8
2018-Apr-17 16:00N 38°51' W 077°01'1 2.7
2018-Apr-17 15:29N 38°53' W 077°01'1 2.4
2018-Apr-17 14:59N 38°51' W 077°01'2 3.6
2018-Apr-17 14:29N 38°50' W 077°02'2 3.5
2018-Apr-17 13:58N 38°48' W 077°02'1 2.3
2018-Apr-17 13:28N 38°47' W 077°01'0 0.6
2018-Apr-17 12:54N 38°47' W 077°01'0 0.0
2018-Apr-17 12:29N 38°47' W 077°01'0 0.0
2018-Apr-17 11:58N 38°47' W 077°01'0 0.0
2018-Apr-17 11:28N 38°47' W 077°01'0 0.0
2018-Apr-17 11:00N 38°47' W 077°01'0 0.0
2018-Apr-17 10:26N 38°47' W 077°01'0 0.0
2018-Apr-17 09:59N 38°47' W 077°01'0 0.0
2018-Apr-17 09:28N 38°47' W 077°01'0 0.0
2018-Apr-17 08:58N 38°47' W 077°01'0 0.0
2018-Apr-17 08:30N 38°47' W 077°01'0 0.0
2018-Apr-17 08:00N 38°47' W 077°01'0 0.0
2018-Apr-17 07:26N 38°47' W 077°01'0 0.0
2018-Apr-17 06:59N 38°47' W 077°01'0 0.0
2018-Apr-17 06:29N 38°47' W 077°01'1 1.6
2018-Apr-17 05:57N 38°47' W 077°02'50 5.0
2018-Apr-16 20:03N 38°04' W 076°30'1 8.3
2018-Apr-16 19:59N 38°03' W 076°30'3 6.5
2018-Apr-16 19:30N 38°02' W 076°33'  
2018-Apr-12 14:13N 38°02' W 076°31'1 7.0
2018-Apr-12 14:00N 38°03' W 076°30'2 0.2
2018-Apr-12 02:08N 38°04' W 076°27'2 6.0
2018-Apr-12 01:46N 38°02' W 076°25'  
Track history (hours):
 
Tides and Currents Weather Stations Pressure Air Temp Water Temp Dewpoint Dewpoint Depression Visibility Wind Speed Wind Dir Waves Ship Positions

Jacqueline A

Owner: SEALAND TRANSPORT CO, URBANNA, VA. More information available from US FCC via Universal Licensing System and Coast Guard Vessel Documentation Center.

Last reported at 2018-Apr-18 01:22 UTC. Time now 2018-Apr-20 22:04 UTC.
Position N 38°03' W 076°26'.

; draft 3 m.

Type: Towing. MMSI: 367299940.

Date/timePositionNaut miles runAvg speedWind from/ knotsBaromVisibWave heightAir tempDewpointWater temp
2018-Apr-18 01:22N 38°03' W 076°26'51 5.9
2018-Apr-17 16:36N 38°46' W 077°02'1 9.8
2018-Apr-17 16:30N 38°47' W 077°02'4 8.8
2018-Apr-17 16:00N 38°51' W 077°01'1 2.7
2018-Apr-17 15:29N 38°53' W 077°01'1 2.4
2018-Apr-17 14:59N 38°51' W 077°01'2 3.6
2018-Apr-17 14:29N 38°50' W 077°02'2 3.5
2018-Apr-17 13:58N 38°48' W 077°02'1 2.3
2018-Apr-17 13:28N 38°47' W 077°01'0 0.6
2018-Apr-17 12:54N 38°47' W 077°01'0 0.0
2018-Apr-17 12:29N 38°47' W 077°01'0 0.0
2018-Apr-17 11:58N 38°47' W 077°01'0 0.0
2018-Apr-17 11:28N 38°47' W 077°01'0 0.0
2018-Apr-17 11:00N 38°47' W 077°01'0 0.0
2018-Apr-17 10:26N 38°47' W 077°01'0 0.0
2018-Apr-17 09:59N 38°47' W 077°01'0 0.0
2018-Apr-17 09:28N 38°47' W 077°01'0 0.0
2018-Apr-17 08:58N 38°47' W 077°01'0 0.0
2018-Apr-17 08:30N 38°47' W 077°01'0 0.0
2018-Apr-17 08:00N 38°47' W 077°01'0 0.0
2018-Apr-17 07:26N 38°47' W 077°01'0 0.0
2018-Apr-17 06:59N 38°47' W 077°01'0 0.0
2018-Apr-17 06:29N 38°47' W 077°01'1 1.6
2018-Apr-17 05:57N 38°47' W 077°02'50 5.0
2018-Apr-16 20:03N 38°04' W 076°30'1 8.3
2018-Apr-16 19:59N 38°03' W 076°30'3 6.5
2018-Apr-16 19:30N 38°02' W 076°33'  
2018-Apr-12 14:13N 38°02' W 076°31'1 7.0
2018-Apr-12 14:00N 38°03' W 076°30'2 0.2
2018-Apr-12 02:08N 38°04' W 076°27'2 6.0
2018-Apr-12 01:46N 38°02' W 076°25'  

Dump ship's entire track history